createdAt,value
2022-12-16T00:04:46.061Z,68.40
2022-12-16T00:09:56.480Z,71.00
2022-12-16T00:15:02.800Z,67.40
2022-12-16T00:20:05.732Z,59.80
2022-12-16T00:25:08.164Z,64.30
2022-12-16T00:30:10.381Z,98.20
2022-12-16T00:35:12.182Z,84.30
2022-12-16T00:40:14.018Z,73.80
2022-12-16T00:45:15.886Z,59.70
2022-12-16T00:50:18.760Z,48.40
2022-12-16T00:55:21.607Z,63.00
2022-12-16T01:00:23.812Z,50.60
2022-12-16T01:05:28.512Z,43.60
2022-12-16T01:10:30.237Z,55.40
2022-12-16T01:15:31.984Z,45.50
2022-12-16T01:20:34.454Z,49.10
2022-12-16T01:25:36.392Z,56.60
2022-12-16T01:30:38.092Z,43.40
2022-12-16T01:35:56.289Z,41.60
2022-12-16T01:40:59.029Z,36.60
2022-12-16T01:46:10.504Z,49.10
2022-12-16T01:51:24.673Z,44.60
2022-12-16T01:56:31.065Z,51.50
2022-12-16T02:01:32.971Z,45.90
2022-12-16T02:06:35.096Z,42.00
2022-12-16T02:12:08.425Z,43.90
2022-12-16T02:17:13.286Z,53.40
2022-12-16T02:23:02.962Z,62.40
2022-12-16T02:28:23.602Z,46.70
2022-12-16T02:33:49.034Z,52.00
2022-12-16T02:39:01.310Z,46.90
2022-12-16T02:44:09.251Z,45.20
2022-12-16T02:49:13.996Z,39.40
2022-12-16T02:54:17.566Z,40.00
2022-12-16T02:59:28.209Z,43.90
2022-12-16T03:04:43.214Z,58.70
2022-12-16T03:09:47.555Z,44.30
2022-12-16T03:14:52.761Z,49.80
2022-12-16T03:20:14.224Z,49.10
2022-12-16T03:25:16.437Z,49.00
2022-12-16T03:30:26.558Z,63.20
2022-12-16T03:35:48.846Z,63.40
2022-12-16T03:40:52.013Z,84.80
2022-12-16T03:46:04.301Z,59.20
2022-12-16T03:51:06.153Z,60.30
2022-12-16T03:56:08.389Z,57.80
2022-12-16T04:01:10.761Z,63.10
2022-12-16T04:06:12.603Z,52.00
2022-12-16T04:11:34.468Z,65.20
2022-12-16T04:16:55.153Z,68.60
2022-12-16T04:22:15.670Z,75.00
2022-12-16T04:27:29.597Z,80.80
2022-12-16T04:32:50.899Z,71.90
2022-12-16T04:38:11.584Z,84.20
2022-12-16T04:43:32.586Z,68.30
2022-12-16T04:48:53.483Z,84.30
2022-12-16T04:54:13.999Z,71.40
2022-12-16T04:59:34.715Z,65.80
2022-12-16T05:04:55.086Z,66.10
2022-12-16T05:10:15.680Z,83.80
2022-12-16T05:15:36.176Z,68.90
2022-12-16T05:20:56.794Z,72.00
2022-12-16T05:26:17.314Z,53.80
2022-12-16T05:31:38.036Z,68.00
2022-12-16T05:36:58.844Z,76.50
2022-12-16T05:42:19.380Z,78.20
2022-12-16T05:47:39.959Z,71.20
2022-12-16T05:53:00.470Z,81.20
2022-12-16T05:58:21.081Z,95.00
2022-12-16T06:03:41.930Z,82.50
2022-12-16T06:09:02.632Z,84.00
2022-12-16T06:14:23.246Z,57.20
2022-12-16T06:19:43.789Z,70.60
2022-12-16T06:25:04.519Z,64.50
2022-12-16T06:30:25.590Z,60.50
2022-12-16T06:35:46.178Z,52.50
2022-12-16T06:41:06.824Z,62.00
2022-12-16T06:46:27.255Z,42.60
2022-12-16T06:51:47.954Z,50.80
2022-12-16T06:57:08.371Z,59.30
2022-12-16T07:02:30.489Z,57.50
2022-12-16T07:07:52.431Z,44.40
2022-12-16T07:13:17.006Z,53.10
2022-12-16T07:18:37.463Z,44.60
2022-12-16T07:23:57.954Z,51.20
2022-12-16T07:29:18.620Z,68.30
2022-12-16T07:34:42.146Z,54.90
2022-12-16T07:40:05.533Z,64.10
2022-12-16T07:45:26.463Z,46.00
2022-12-16T07:50:47.083Z,52.40
2022-12-16T07:56:07.835Z,62.10
2022-12-16T08:01:29.419Z,60.90
2022-12-16T08:06:50.119Z,49.10
2022-12-16T08:12:10.646Z,54.90
2022-12-16T08:17:31.096Z,61.30
2022-12-16T08:22:51.360Z,63.60
2022-12-16T08:28:16.209Z,67.60
2022-12-16T08:33:37.790Z,79.50
2022-12-16T08:38:58.060Z,72.80
2022-12-16T08:44:18.831Z,74.40
2022-12-16T08:49:39.918Z,87.20
2022-12-16T08:55:00.277Z,77.70
2022-12-16T09:00:21.405Z,83.00
2022-12-16T09:05:42.370Z,69.80
2022-12-16T09:11:02.669Z,72.70
2022-12-16T09:21:43.916Z,69.60
2022-12-16T09:27:04.146Z,80.10
2022-12-16T09:32:24.546Z,90.00
2022-12-16T09:37:45.348Z,87.50
2022-12-16T09:43:33.037Z,75.00
2022-12-16T09:49:02.579Z,96.60
2022-12-16T09:54:24.068Z,125.70
2022-12-16T09:59:53.226Z,126.60
2022-12-16T10:05:15.040Z,89.50
2022-12-16T10:10:44.570Z,79.40
2022-12-16T10:16:14.192Z,82.20
2022-12-16T10:21:42.223Z,91.10
2022-12-16T10:27:16.727Z,83.60
2022-12-16T10:32:49.443Z,75.40
2022-12-16T10:38:10.186Z,74.10
2022-12-16T10:44:10.389Z,78.00
2022-12-16T10:49:33.646Z,91.70
2022-12-16T10:54:59.337Z,86.70
2022-12-16T11:00:35.243Z,87.80
2022-12-16T11:05:56.129Z,91.00
2022-12-16T11:11:16.650Z,82.60
2022-12-16T11:16:46.263Z,89.50
2022-12-16T11:22:07.960Z,92.40
2022-12-16T11:27:39.508Z,86.20
2022-12-16T11:33:15.368Z,80.00
2022-12-16T11:38:48.623Z,77.00
2022-12-16T11:44:11.975Z,88.60
2022-12-16T11:49:50.932Z,65.70
2022-12-16T11:56:02.890Z,69.20
2022-12-16T12:01:21.169Z,72.30
2022-12-16T12:07:18.601Z,74.50
2022-12-16T12:13:17.688Z,70.00
2022-12-16T12:18:56.806Z,75.00
2022-12-16T12:24:45.852Z,73.40
2022-12-16T12:30:24.369Z,77.50
2022-12-16T12:36:09.056Z,85.10
2022-12-16T12:41:38.447Z,75.40
2022-12-16T12:47:01.890Z,88.40
2022-12-16T12:52:48.982Z,88.20
2022-12-16T12:58:13.383Z,96.40
2022-12-16T13:03:49.162Z,97.70
2022-12-16T13:09:09.814Z,86.50
2022-12-16T13:14:49.624Z,102.10
2022-12-16T13:20:14.327Z,101.50
2022-12-16T13:25:54.932Z,92.90
2022-12-16T13:31:25.571Z,102.00
2022-12-16T13:36:53.673Z,109.70
2022-12-16T13:42:19.357Z,115.80
2022-12-16T13:47:59.737Z,95.60
2022-12-16T13:53:23.057Z,107.40
2022-12-16T13:58:43.452Z,106.30
2022-12-16T14:04:10.234Z,126.40
2022-12-16T14:09:50.816Z,121.80
2022-12-16T14:15:19.717Z,124.70
2022-12-16T14:20:55.372Z,145.40
2022-12-16T14:26:17.223Z,151.00
2022-12-16T14:31:47.651Z,155.80
2022-12-16T14:37:12.604Z,132.40
2022-12-16T14:47:58.768Z,134.90
2022-12-16T14:53:33.735Z,151.20
2022-12-16T14:58:54.372Z,131.30
2022-12-16T15:04:16.215Z,137.80
2022-12-16T15:09:46.328Z,144.00
2022-12-16T15:15:07.528Z,129.70
2022-12-16T15:20:56.090Z,158.50
2022-12-16T15:26:17.060Z,180.00
2022-12-16T15:31:50.394Z,167.50
2022-12-16T15:37:10.931Z,187.40
2022-12-16T15:42:47.825Z,180.60
2022-12-16T15:48:09.663Z,152.90
2022-12-16T15:53:51.851Z,184.50
2022-12-16T15:59:33.039Z,159.10
2022-12-16T16:04:53.624Z,171.30
2022-12-16T16:10:41.463Z,167.60
2022-12-16T16:16:02.215Z,153.40
2022-12-16T16:21:23.029Z,154.80
2022-12-16T16:26:46.581Z,147.90
2022-12-16T16:32:07.053Z,163.40
2022-12-16T16:37:33.443Z,165.80
2022-12-16T16:42:53.995Z,138.50
2022-12-16T16:48:36.328Z,166.40
2022-12-16T16:53:56.987Z,168.00
2022-12-16T16:59:17.830Z,189.80
2022-12-16T17:04:38.301Z,169.50
2022-12-16T17:09:59.085Z,183.40
2022-12-16T17:15:19.699Z,182.30
2022-12-16T17:20:40.531Z,186.90
2022-12-16T17:26:01.087Z,168.60
2022-12-16T17:31:29.223Z,185.80
2022-12-16T17:36:50.124Z,185.30
2022-12-16T17:42:10.833Z,184.10
2022-12-16T17:47:31.788Z,172.00
2022-12-16T17:52:52.320Z,187.40
2022-12-16T17:58:12.905Z,166.80
2022-12-16T18:03:33.897Z,175.90
2022-12-16T18:08:54.821Z,163.50
2022-12-16T18:14:15.384Z,172.90
2022-12-16T18:19:36.500Z,165.40
2022-12-16T18:24:56.814Z,186.00
2022-12-16T18:35:51.602Z,188.00
2022-12-16T18:41:20.687Z,190.90
2022-12-16T18:46:41.281Z,198.70
2022-12-16T18:52:01.813Z,174.00
2022-12-16T18:57:22.367Z,216.80
2022-12-16T19:02:43.058Z,200.00
2022-12-16T19:08:03.622Z,208.50
2022-12-16T19:13:24.570Z,213.40
2022-12-16T19:18:45.307Z,197.50
2022-12-16T19:24:27.591Z,205.70
2022-12-16T19:29:48.384Z,195.40
2022-12-16T19:35:08.771Z,191.10
2022-12-16T19:40:30.929Z,198.70
2022-12-16T19:45:51.586Z,206.90
2022-12-16T19:51:20.394Z,223.00
2022-12-16T19:56:41.035Z,226.20
2022-12-16T20:02:01.696Z,216.90
2022-12-16T20:07:23.396Z,214.70
2022-12-16T20:12:44.025Z,170.40
2022-12-16T20:18:04.787Z,212.50
2022-12-16T20:23:25.157Z,197.50
2022-12-16T20:34:12.848Z,198.80
2022-12-16T20:39:33.275Z,221.20
2022-12-16T20:44:53.813Z,185.70
2022-12-16T20:50:16.900Z,210.50
2022-12-16T20:55:37.487Z,188.10
2022-12-16T21:00:58.110Z,208.60
2022-12-16T21:06:18.716Z,223.70
2022-12-16T21:11:39.323Z,209.30
2022-12-16T21:17:00.015Z,234.20
2022-12-16T21:22:20.889Z,230.30
2022-12-16T21:27:41.269Z,186.80
2022-12-16T21:33:01.805Z,216.10
2022-12-16T21:38:30.603Z,224.30
2022-12-16T21:43:51.098Z,234.50
2022-12-16T21:49:12.256Z,231.80
2022-12-16T21:54:32.798Z,182.40
2022-12-16T21:59:53.384Z,201.50
2022-12-16T22:05:17.100Z,182.10
2022-12-16T22:10:37.947Z,193.60
2022-12-16T22:16:02.485Z,189.00
2022-12-16T22:21:25.012Z,137.10
2022-12-16T22:26:45.420Z,198.60
2022-12-16T22:32:06.914Z,187.30
2022-12-16T22:37:28.545Z,212.40
2022-12-16T22:42:48.992Z,209.70
2022-12-16T22:48:09.617Z,180.00
2022-12-16T22:53:32.847Z,178.70
2022-12-16T22:58:53.488Z,187.00
2022-12-16T23:04:16.770Z,174.10
2022-12-16T23:09:37.460Z,137.50
2022-12-16T23:14:58.022Z,162.70
2022-12-16T23:20:18.600Z,148.00
2022-12-16T23:25:39.163Z,177.40
2022-12-16T23:30:59.816Z,175.10
2022-12-16T23:36:20.169Z,172.40
2022-12-16T23:41:40.756Z,156.30
2022-12-16T23:47:01.222Z,187.50
2022-12-16T23:52:21.916Z,169.50
2022-12-16T23:57:42.451Z,178.70
